Time;durP1;ratioP1;P1;durP2;ratioP2;P2;SDS_P1;SDS_P2;PMS_P1;PMS_P2;Temp;Humidity;BMP_temperature;BMP_pressure;BME280_temperature;BME280_humidity;BME280_pressure;Samples;Min_cycle;Max_cycle;Signal;HPM_P1;HPM_P2
2021/12/23 00:01:48;;;;;;;33.58;18.88;;;;;;;;;;4991361;28;20042;-68
2021/12/23 00:04:14;;;;;;;28.40;18.05;;;;;;;;;;4986616;28;20460;-68
2021/12/23 00:06:41;;;;;;;30.13;18.20;;;;;;;;;;4976955;28;20039;-68
2021/12/23 00:09:07;;;;;;;31.38;18.00;;;;;;;;;;4982703;28;20038;-68
2021/12/23 00:11:33;;;;;;;27.88;18.15;;;;;;;;;;4975394;28;20054;-68
2021/12/23 00:14:05;;;;;;;35.90;18.95;;;;;;;;;;4986907;28;20557;-68
2021/12/23 00:16:55;;;;;;;30.75;17.67;;;;;;;;;;4986453;28;20097;-68
2021/12/23 00:19:58;;;;;;;34.10;18.42;;;;;;;;;;4966923;28;20058;-68
2021/12/23 00:24:53;;;;;;;31.52;17.30;;;;;;;;;;4988300;28;20423;-68
2021/12/23 00:27:19;;;;;;;32.30;19.50;;;;;;;;;;4990260;28;20126;-68
2021/12/23 00:29:45;;;;;;;31.10;18.17;;;;;;;;;;4984344;28;20046;-68
2021/12/23 00:32:11;;;;;;;34.78;17.80;;;;;;;;;;4991132;28;20496;-68
2021/12/23 00:34:37;;;;;;;35.75;19.45;;;;;;;;;;4975382;28;20039;-68
2021/12/23 00:37:06;;;;;;;35.28;18.23;;;;;;;;;;4991052;28;20046;-67
2021/12/23 00:39:32;;;;;;;31.27;18.08;;;;;;;;;;4969874;28;20046;-68
2021/12/23 00:42:06;;;;;;;32.05;18.30;;;;;;;;;;4983308;28;20034;-68
2021/12/23 00:44:33;;;;;;;32.15;19.13;;;;;;;;;;4979592;28;20038;-68
2021/12/23 00:46:58;;;;;;;33.63;18.70;;;;;;;;;;4975286;28;20042;-68
2021/12/23 00:49:24;;;;;;;34.00;17.77;;;;;;;;;;4969801;28;20399;-68
2021/12/23 00:51:51;;;;;;;33.63;17.88;;;;;;;;;;4985956;28;20034;-68
2021/12/23 00:54:17;;;;;;;32.00;17.90;;;;;;;;;;4992999;28;20038;-68
2021/12/23 00:56:48;;;;;;;34.58;18.08;;;;;;;;;;4994083;28;20508;-68
2021/12/23 00:59:14;;;;;;;30.58;17.85;;;;;;;;;;4977316;28;20094;-68
2021/12/23 01:01:41;;;;;;;28.20;17.23;;;;;;;;;;4957607;28;20531;-68
2021/12/23 01:04:07;;;;;;;32.70;16.98;;;;;;;;;;4981479;28;20046;-68
2021/12/23 01:06:33;;;;;;;30.25;17.67;;;;;;;;;;4976534;28;20053;-67
2021/12/23 01:08:59;;;;;;;29.23;17.58;;;;;;;;;;4980764;28;20047;-68
2021/12/23 01:11:27;;;;;;;30.65;17.63;;;;;;;;;;4975426;28;20378;-68
2021/12/23 01:14:24;;;;;;;31.92;17.95;;;;;;;;;;4990292;28;20105;-68
2021/12/23 01:19:24;;;;;;;34.13;18.57;;;;;;;;;;4987724;28;20042;-68
2021/12/23 01:21:50;;;;;;;32.67;17.33;;;;;;;;;;4994169;28;20424;-68
2021/12/23 01:24:16;;;;;;;30.37;17.30;;;;;;;;;;4984969;28;20049;-68
2021/12/23 01:26:42;;;;;;;31.05;17.60;;;;;;;;;;4977752;28;20130;-68
2021/12/23 01:29:08;;;;;;;28.45;16.88;;;;;;;;;;4986443;28;20073;-68
2021/12/23 01:31:36;;;;;;;28.98;17.90;;;;;;;;;;4991739;28;20089;-67
2021/12/23 01:34:03;;;;;;;30.02;16.77;;;;;;;;;;4978040;28;20046;-68
2021/12/23 01:36:29;;;;;;;30.33;17.63;;;;;;;;;;4958237;28;20408;-68
2021/12/23 01:38:55;;;;;;;31.95;17.85;;;;;;;;;;4979528;28;20130;-68
2021/12/23 01:41:21;;;;;;;26.55;17.00;;;;;;;;;;4974315;28;20070;-67
2021/12/23 01:43:48;;;;;;;28.73;17.40;;;;;;;;;;4957672;28;20422;-68
2021/12/23 01:46:15;;;;;;;32.47;17.23;;;;;;;;;;4985025;28;20070;-68
2021/12/23 01:48:42;;;;;;;29.30;17.58;;;;;;;;;;4990350;28;20047;-68
2021/12/23 01:51:08;;;;;;;34.17;17.77;;;;;;;;;;4982288;28;20046;-68
2021/12/23 01:53:34;;;;;;;29.73;17.30;;;;;;;;;;4992821;28;20464;-68
2021/12/23 01:56:00;;;;;;;30.17;17.88;;;;;;;;;;4975687;28;20053;-68
2021/12/23 01:58:26;;;;;;;31.87;16.87;;;;;;;;;;4982868;28;20125;-68
2021/12/23 02:00:53;;;;;;;30.35;16.98;;;;;;;;;;4965544;28;20275;-67
2021/12/23 02:03:19;;;;;;;31.33;17.27;;;;;;;;;;4973540;28;20058;-68
2021/12/23 02:05:45;;;;;;;28.70;16.38;;;;;;;;;;4983978;28;20042;-67
2021/12/23 02:08:12;;;;;;;29.37;17.17;;;;;;;;;;4991140;28;20038;-68
2021/12/23 02:10:40;;;;;;;31.13;16.83;;;;;;;;;;4973511;28;20084;-68
2021/12/23 02:13:06;;;;;;;30.83;15.93;;;;;;;;;;4960305;28;20046;-67
2021/12/23 02:15:32;;;;;;;33.22;16.73;;;;;;;;;;4989618;28;20499;-67
2021/12/23 02:17:58;;;;;;;28.00;15.95;;;;;;;;;;4987178;28;20042;-68
2021/12/23 02:20:26;;;;;;;30.58;16.75;;;;;;;;;;4973615;28;20043;-67
2021/12/23 02:22:52;;;;;;;28.23;16.75;;;;;;;;;;4973536;28;20070;-68
2021/12/23 02:25:18;;;;;;;30.70;17.20;;;;;;;;;;4967934;28;20455;-68
2021/12/23 02:27:45;;;;;;;30.70;17.43;;;;;;;;;;4988349;28;20404;-68
2021/12/23 02:30:19;;;;;;;29.77;17.13;;;;;;;;;;4984009;28;20399;-67
2021/12/23 02:32:46;;;;;;;35.40;17.65;;;;;;;;;;4993050;28;20125;-68
2021/12/23 02:35:14;;;;;;;31.98;18.23;;;;;;;;;;4991970;28;20424;-68
2021/12/23 02:37:41;;;;;;;28.65;17.15;;;;;;;;;;4978882;28;20042;-68
2021/12/23 02:40:08;;;;;;;32.00;17.50;;;;;;;;;;4990969;28;20166;-67
2021/12/23 02:42:34;;;;;;;29.52;16.85;;;;;;;;;;4992649;28;20043;-67
2021/12/23 02:45:01;;;;;;;30.27;17.63;;;;;;;;;;4978787;28;20041;-68
2021/12/23 02:47:27;;;;;;;28.83;17.20;;;;;;;;;;4991598;28;20085;-68
2021/12/23 02:49:53;;;;;;;31.13;17.05;;;;;;;;;;4991314;28;20425;-68
2021/12/23 02:52:19;;;;;;;32.33;17.70;;;;;;;;;;4975227;28;20046;-68
2021/12/23 02:54:53;;;;;;;27.88;16.50;;;;;;;;;;4985004;28;20492;-68
2021/12/23 02:57:19;;;;;;;30.20;16.07;;;;;;;;;;4988297;28;20082;-68
2021/12/23 02:59:45;;;;;;;26.88;16.73;;;;;;;;;;4977907;28;20442;-68
2021/12/23 03:02:11;;;;;;;32.73;16.83;;;;;;;;;;4982021;28;20034;-68
2021/12/23 03:04:37;;;;;;;30.57;17.47;;;;;;;;;;4991294;28;20054;-68
2021/12/23 03:07:03;;;;;;;31.33;16.83;;;;;;;;;;4982835;28;20089;-68
2021/12/23 03:09:29;;;;;;;27.50;16.35;;;;;;;;;;4983518;28;20093;-68
2021/12/23 03:11:55;;;;;;;30.52;17.52;;;;;;;;;;4991860;28;20069;-67
2021/12/23 03:14:21;;;;;;;29.63;17.60;;;;;;;;;;4973017;28;20042;-68
2021/12/23 03:16:49;;;;;;;30.97;16.47;;;;;;;;;;4982057;28;20101;-68
2021/12/23 03:19:15;;;;;;;30.50;17.38;;;;;;;;;;4970656;28;20436;-67
2021/12/23 03:21:44;;;;;;;33.78;18.25;;;;;;;;;;4991005;28;20046;-68
2021/12/23 03:24:10;;;;;;;26.95;16.38;;;;;;;;;;4988317;28;20607;-67
2021/12/23 03:26:36;;;;;;;27.92;16.40;;;;;;;;;;4991186;28;20050;-68
2021/12/23 03:29:02;;;;;;;30.40;18.45;;;;;;;;;;4990656;28;20038;-68
2021/12/23 03:31:28;;;;;;;29.10;17.10;;;;;;;;;;4974730;28;20042;-68
2021/12/23 03:33:54;;;;;;;31.50;17.38;;;;;;;;;;4991196;28;20039;-68
2021/12/23 03:36:20;;;;;;;32.33;17.70;;;;;;;;;;4991916;28;20046;-68
2021/12/23 03:38:46;;;;;;;29.08;16.02;;;;;;;;;;4980542;28;20039;-68
2021/12/23 03:41:14;;;;;;;29.25;15.70;;;;;;;;;;4991553;28;20509;-67
2021/12/23 03:43:40;;;;;;;27.23;16.80;;;;;;;;;;4992251;28;20109;-68
2021/12/23 03:46:06;;;;;;;28.63;16.73;;;;;;;;;;4990003;28;20034;-67
2021/12/23 03:48:32;;;;;;;26.83;17.02;;;;;;;;;;4987182;28;20038;-67
2021/12/23 03:50:58;;;;;;;29.65;17.10;;;;;;;;;;4983004;28;20487;-68
2021/12/23 03:53:24;;;;;;;29.00;16.88;;;;;;;;;;4979704;28;20043;-68
2021/12/23 03:55:50;;;;;;;29.80;17.60;;;;;;;;;;4985496;28;20041;-67
2021/12/23 03:58:16;;;;;;;30.23;16.80;;;;;;;;;;4981974;28;20043;-68
2021/12/23 04:00:43;;;;;;;26.73;16.30;;;;;;;;;;4960997;28;20038;-68
2021/12/23 04:03:09;;;;;;;30.17;17.05;;;;;;;;;;4972579;28;20089;-67
2021/12/23 04:05:34;;;;;;;28.52;16.17;;;;;;;;;;4990350;28;20038;-68
2021/12/23 04:08:00;;;;;;;31.23;17.42;;;;;;;;;;4974771;28;20046;-68
2021/12/23 04:10:26;;;;;;;32.97;17.73;;;;;;;;;;4984032;28;20031;-67
2021/12/23 04:12:52;;;;;;;31.10;17.27;;;;;;;;;;4992189;28;20034;-68
2021/12/23 04:15:19;;;;;;;27.05;15.70;;;;;;;;;;4990585;28;20041;-68
2021/12/23 04:17:46;;;;;;;29.48;15.65;;;;;;;;;;4990681;28;20116;-67
2021/12/23 04:20:20;;;;;;;29.42;16.50;;;;;;;;;;4992607;28;20048;-68
2021/12/23 04:22:48;;;;;;;27.70;16.30;;;;;;;;;;4989952;28;20064;-68
2021/12/23 04:25:15;;;;;;;30.83;16.88;;;;;;;;;;4990757;28;20524;-68
2021/12/23 04:27:41;;;;;;;31.20;16.63;;;;;;;;;;5027846;22;20048;-70
2021/12/23 04:30:08;;;;;;;29.77;17.90;;;;;;;;;;5051855;28;20045;-70
2021/12/23 04:32:34;;;;;;;30.58;16.17;;;;;;;;;;5051742;28;20494;-70
2021/12/23 04:35:00;;;;;;;32.75;17.10;;;;;;;;;;5052868;28;20036;-70
2021/12/23 04:37:26;;;;;;;28.50;15.93;;;;;;;;;;5048314;28;20038;-70
2021/12/23 04:39:52;;;;;;;31.50;16.85;;;;;;;;;;5033726;28;20040;-70
2021/12/23 04:42:18;;;;;;;30.30;17.02;;;;;;;;;;5034195;28;20152;-70
2021/12/23 04:44:44;;;;;;;31.20;17.20;;;;;;;;;;5033289;28;20044;-70
2021/12/23 04:47:10;;;;;;;29.70;16.23;;;;;;;;;;5033266;28;20525;-70
2021/12/23 04:49:36;;;;;;;30.40;16.80;;;;;;;;;;5033299;28;20120;-70
2021/12/23 04:52:02;;;;;;;29.00;16.92;;;;;;;;;;5033354;28;20108;-70
2021/12/23 04:54:27;;;;;;;31.00;16.67;;;;;;;;;;5033852;28;20034;-70
2021/12/23 04:56:53;;;;;;;30.00;17.90;;;;;;;;;;5032182;28;20034;-70
2021/12/23 04:59:20;;;;;;;31.42;16.27;;;;;;;;;;5033283;28;20048;-70
2021/12/23 05:01:47;;;;;;;29.67;16.45;;;;;;;;;;5028866;28;20487;-70
2021/12/23 05:04:13;;;;;;;27.63;16.27;;;;;;;;;;5032186;28;20525;-70
2021/12/23 05:06:40;;;;;;;31.90;16.88;;;;;;;;;;5030886;28;20041;-70
2021/12/23 05:09:06;;;;;;;28.38;16.23;;;;;;;;;;5026276;28;20037;-69
2021/12/23 05:11:32;;;;;;;28.42;16.40;;;;;;;;;;5028913;28;20041;-70
2021/12/23 05:13:58;;;;;;;30.00;16.38;;;;;;;;;;5031377;28;20045;-70
2021/12/23 05:16:24;;;;;;;26.52;17.02;;;;;;;;;;5033847;28;20049;-70
2021/12/23 05:18:50;;;;;;;28.27;16.00;;;;;;;;;;5029880;28;20041;-70
2021/12/23 05:21:17;;;;;;;26.30;15.38;;;;;;;;;;5032014;28;20383;-70
2021/12/23 05:23:42;;;;;;;31.17;16.17;;;;;;;;;;5029044;28;20041;-70
2021/12/23 05:26:09;;;;;;;33.05;16.42;;;;;;;;;;5033101;28;20052;-70
2021/12/23 05:28:35;;;;;;;31.85;16.58;;;;;;;;;;5020728;28;20483;-70
2021/12/23 05:31:01;;;;;;;28.85;16.67;;;;;;;;;;5032104;28;20059;-70
2021/12/23 05:33:27;;;;;;;28.10;15.13;;;;;;;;;;5015478;28;20041;-68
2021/12/23 05:35:55;;;;;;;29.67;16.10;;;;;;;;;;5031132;28;20537;-68
2021/12/23 05:38:21;;;;;;;27.55;16.30;;;;;;;;;;5029976;28;20045;-68
2021/12/23 05:40:47;;;;;;;27.45;16.17;;;;;;;;;;5029089;28;20037;-68
2021/12/23 05:43:13;;;;;;;28.17;16.27;;;;;;;;;;5023984;28;20044;-68
2021/12/23 05:45:39;;;;;;;30.70;17.27;;;;;;;;;;5031694;28;20156;-67
2021/12/23 05:48:05;;;;;;;29.92;17.38;;;;;;;;;;5025035;28;20033;-67
2021/12/23 05:50:31;;;;;;;24.73;15.02;;;;;;;;;;5025010;28;20494;-67
2021/12/23 05:52:57;;;;;;;27.70;16.65;;;;;;;;;;5026922;28;20068;-68
2021/12/23 05:55:23;;;;;;;30.90;16.83;;;;;;;;;;5027823;28;20060;-68
2021/12/23 05:57:49;;;;;;;27.73;16.83;;;;;;;;;;5030321;28;20033;-69
2021/12/23 06:00:18;;;;;;;27.60;16.15;;;;;;;;;;5027062;28;20041;-68
2021/12/23 06:02:44;;;;;;;30.02;16.95;;;;;;;;;;5031432;28;20498;-68
2021/12/23 06:05:10;;;;;;;30.85;16.95;;;;;;;;;;5028853;28;20064;-68
2021/12/23 06:07:36;;;;;;;29.90;16.63;;;;;;;;;;5031374;28;20053;-68
2021/12/23 06:10:03;;;;;;;27.42;16.00;;;;;;;;;;5025850;28;20037;-69
2021/12/23 06:12:29;;;;;;;29.98;16.88;;;;;;;;;;5029550;28;20033;-67
2021/12/23 06:14:55;;;;;;;31.92;17.25;;;;;;;;;;5029837;28;20044;-68
2021/12/23 06:17:21;;;;;;;32.40;16.35;;;;;;;;;;5024570;28;20048;-68
2021/12/23 06:19:47;;;;;;;29.17;16.45;;;;;;;;;;5030064;28;20060;-68
2021/12/23 06:22:14;;;;;;;29.00;16.33;;;;;;;;;;5027764;28;20037;-68
2021/12/23 06:24:44;;;;;;;29.75;16.85;;;;;;;;;;5031928;28;20048;-69
2021/12/23 06:27:10;;;;;;;30.45;17.17;;;;;;;;;;5031109;28;20132;-68
2021/12/23 06:29:36;;;;;;;29.58;17.25;;;;;;;;;;5031183;28;20135;-68
2021/12/23 06:32:01;;;;;;;32.85;17.10;;;;;;;;;;5031456;28;20107;-69
2021/12/23 06:34:28;;;;;;;29.35;16.65;;;;;;;;;;5031560;28;20045;-68
2021/12/23 06:36:54;;;;;;;29.70;16.48;;;;;;;;;;5029132;28;20045;-68
2021/12/23 06:39:20;;;;;;;31.77;17.02;;;;;;;;;;5030672;28;20044;-68
2021/12/23 06:41:45;;;;;;;32.55;18.52;;;;;;;;;;5028654;28;20045;-68
2021/12/23 06:44:11;;;;;;;34.17;18.55;;;;;;;;;;5032251;28;20037;-68
2021/12/23 06:46:37;;;;;;;31.38;17.92;;;;;;;;;;5031201;28;20487;-68
2021/12/23 06:49:04;;;;;;;29.80;17.13;;;;;;;;;;5028931;28;20037;-68
2021/12/23 06:51:30;;;;;;;30.15;17.55;;;;;;;;;;5029868;28;20037;-69
2021/12/23 06:53:58;;;;;;;29.58;16.85;;;;;;;;;;5029430;28;20498;-69
2021/12/23 06:56:24;;;;;;;34.55;17.67;;;;;;;;;;5027918;28;20045;-69
2021/12/23 06:58:50;;;;;;;29.23;16.85;;;;;;;;;;5031290;28;20033;-69
2021/12/23 07:01:18;;;;;;;30.02;16.85;;;;;;;;;;5026098;28;20434;-69
2021/12/23 07:04:08;;;;;;;35.63;17.60;;;;;;;;;;5030328;28;20040;-68
2021/12/23 07:06:35;;;;;;;32.95;18.88;;;;;;;;;;5021031;28;20056;-68
2021/12/23 07:09:03;;;;;;;32.88;18.45;;;;;;;;;;5025325;28;20454;-69
2021/12/23 07:11:29;;;;;;;31.77;19.15;;;;;;;;;;5029008;28;20033;-68
2021/12/23 07:13:55;;;;;;;33.33;18.63;;;;;;;;;;5027379;28;20124;-69
2021/12/23 07:16:21;;;;;;;36.58;19.27;;;;;;;;;;5029827;28;20044;-69
2021/12/23 07:18:47;;;;;;;35.95;19.85;;;;;;;;;;5026837;28;20045;-68
2021/12/23 07:21:13;;;;;;;32.30;18.75;;;;;;;;;;5029960;28;20037;-69
2021/12/23 07:23:39;;;;;;;32.60;18.65;;;;;;;;;;5028801;28;20044;-69
2021/12/23 07:26:05;;;;;;;30.75;17.60;;;;;;;;;;5028053;28;20037;-69
2021/12/23 07:28:31;;;;;;;32.58;18.83;;;;;;;;;;5029972;28;20033;-69
2021/12/23 07:30:57;;;;;;;36.22;18.92;;;;;;;;;;5027872;28;20121;-69
2021/12/23 07:33:23;;;;;;;29.92;17.10;;;;;;;;;;5029054;28;20034;-69
2021/12/23 07:35:49;;;;;;;34.45;19.33;;;;;;;;;;5029913;28;20044;-69
2021/12/23 07:38:16;;;;;;;35.33;19.60;;;;;;;;;;5027750;28;20041;-69
2021/12/23 07:40:42;;;;;;;34.10;18.38;;;;;;;;;;5023232;28;20045;-69
2021/12/23 07:43:10;;;;;;;37.58;19.48;;;;;;;;;;5029916;28;20034;-69
2021/12/23 07:45:36;;;;;;;31.05;18.20;;;;;;;;;;5032531;28;20041;-69
2021/12/23 07:48:02;;;;;;;36.63;18.77;;;;;;;;;;5032066;28;20048;-69
2021/12/23 07:50:29;;;;;;;34.67;19.23;;;;;;;;;;5033469;28;20033;-69
2021/12/23 07:52:55;;;;;;;38.03;19.75;;;;;;;;;;5032068;28;20038;-69
2021/12/23 07:55:21;;;;;;;35.55;18.95;;;;;;;;;;5028513;28;20033;-69
2021/12/23 07:57:47;;;;;;;41.33;20.13;;;;;;;;;;5033796;28;20449;-69
2021/12/23 08:00:14;;;;;;;36.22;19.05;;;;;;;;;;5031368;28;20041;-69
2021/12/23 08:02:40;;;;;;;32.60;19.23;;;;;;;;;;5037625;28;20045;-69
2021/12/23 08:05:06;;;;;;;33.90;19.60;;;;;;;;;;5032690;28;20065;-69
2021/12/23 08:07:32;;;;;;;38.55;20.48;;;;;;;;;;5031675;28;20045;-69
2021/12/23 08:09:58;;;;;;;37.67;20.17;;;;;;;;;;5033942;28;20038;-69
2021/12/23 08:12:24;;;;;;;39.90;19.20;;;;;;;;;;5014589;28;20140;-69
2021/12/23 08:14:50;;;;;;;34.42;17.73;;;;;;;;;;5033203;28;20388;-69
2021/12/23 08:17:16;;;;;;;36.47;20.00;;;;;;;;;;5031719;28;20060;-69
2021/12/23 08:19:42;;;;;;;43.03;21.42;;;;;;;;;;5033117;28;20037;-69
2021/12/23 08:22:08;;;;;;;43.92;21.35;;;;;;;;;;5033307;28;20038;-69
2021/12/23 08:24:35;;;;;;;40.05;22.33;;;;;;;;;;5030527;28;20113;-68
2021/12/23 08:27:01;;;;;;;37.92;20.98;;;;;;;;;;5030254;28;20037;-69
2021/12/23 08:29:27;;;;;;;38.58;19.67;;;;;;;;;;5029965;28;20040;-69
2021/12/23 08:31:53;;;;;;;38.28;21.13;;;;;;;;;;5033623;28;20069;-69
2021/12/23 08:34:23;;;;;;;41.88;21.17;;;;;;;;;;5033863;28;20047;-69
2021/12/23 08:36:50;;;;;;;41.78;21.52;;;;;;;;;;5033081;28;20065;-67
2021/12/23 08:39:16;;;;;;;45.28;22.70;;;;;;;;;;5031774;28;20045;-69
2021/12/23 08:41:42;;;;;;;43.05;22.42;;;;;;;;;;5033086;28;20045;-68
2021/12/23 08:44:08;;;;;;;41.53;20.77;;;;;;;;;;5031197;28;20046;-68
2021/12/23 08:46:34;;;;;;;41.47;20.80;;;;;;;;;;5033017;28;20399;-69
2021/12/23 08:49:00;;;;;;;41.33;21.20;;;;;;;;;;5030662;28;20116;-68
2021/12/23 08:51:26;;;;;;;41.00;21.98;;;;;;;;;;5033219;28;20048;-69
2021/12/23 08:53:52;;;;;;;39.67;21.02;;;;;;;;;;5032541;28;20073;-68
2021/12/23 08:56:18;;;;;;;42.88;22.83;;;;;;;;;;5028155;28;20129;-69
2021/12/23 08:58:44;;;;;;;44.15;22.13;;;;;;;;;;5032855;28;20029;-69
2021/12/23 09:01:11;;;;;;;45.35;23.17;;;;;;;;;;5032064;28;20045;-69
2021/12/23 09:03:37;;;;;;;44.50;22.65;;;;;;;;;;5030973;28;20045;-69
2021/12/23 09:06:04;;;;;;;44.58;23.23;;;;;;;;;;5033225;28;20048;-69
2021/12/23 09:08:30;;;;;;;45.42;22.50;;;;;;;;;;5032032;28;20524;-69
2021/12/23 09:10:56;;;;;;;48.42;22.77;;;;;;;;;;5032675;28;20033;-68
2021/12/23 09:13:23;;;;;;;44.35;22.83;;;;;;;;;;5032553;28;20033;-69
2021/12/23 09:15:51;;;;;;;41.22;22.48;;;;;;;;;;5033122;28;20041;-68
2021/12/23 09:18:17;;;;;;;46.20;21.88;;;;;;;;;;5032432;28;20044;-68
2021/12/23 09:20:43;;;;;;;46.22;23.92;;;;;;;;;;5032653;28;20098;-68
2021/12/23 09:23:09;;;;;;;47.58;24.17;;;;;;;;;;5031433;28;20056;-68
2021/12/23 09:25:36;;;;;;;49.55;24.75;;;;;;;;;;5032090;28;20044;-68
2021/12/23 09:28:14;;;;;;;52.45;24.20;;;;;;;;;;5030769;28;20041;-68
2021/12/23 09:33:26;;;;;;;49.30;23.25;;;;;;;;;;5031680;28;20064;-69
2021/12/23 09:35:52;;;;;;;45.15;23.73;;;;;;;;;;5029640;28;20069;-69
2021/12/23 09:38:24;;;;;;;45.25;24.08;;;;;;;;;;5027093;28;20510;-69
2021/12/23 09:40:51;;;;;;;53.90;24.65;;;;;;;;;;5032949;28;20064;-69
2021/12/23 09:43:20;;;;;;;47.45;22.95;;;;;;;;;;5032620;28;20479;-69
2021/12/23 09:45:47;;;;;;;46.88;24.00;;;;;;;;;;5032487;28;20499;-69
2021/12/23 09:48:14;;;;;;;51.90;23.35;;;;;;;;;;5031894;28;20487;-69
2021/12/23 09:50:41;;;;;;;55.67;25.55;;;;;;;;;;5027011;28;20034;-69
2021/12/23 09:53:07;;;;;;;51.75;24.52;;;;;;;;;;5026936;28;20095;-68
2021/12/23 09:55:35;;;;;;;46.17;23.35;;;;;;;;;;5030911;28;20045;-68
2021/12/23 09:58:01;;;;;;;50.88;24.70;;;;;;;;;;5030894;28;20041;-68
2021/12/23 10:00:29;;;;;;;52.40;24.45;;;;;;;;;;5030469;28;20552;-68
2021/12/23 10:02:56;;;;;;;51.92;24.80;;;;;;;;;;5032026;28;20106;-68
2021/12/23 10:05:24;;;;;;;53.10;25.92;;;;;;;;;;5029053;28;20091;-69
2021/12/23 10:07:50;;;;;;;52.60;24.80;;;;;;;;;;5028913;28;20045;-69
2021/12/23 10:26:52;;;;;;;53.22;24.77;;;;;;;;;;5033902;28;20419;-68
2021/12/23 10:38:04;;;;;;;56.58;25.60;;;;;;;;;;5044670;28;20056;-63
2021/12/23 10:40:31;;;;;;;60.83;27.48;;;;;;;;;;5030892;28;20049;-63
2021/12/23 10:42:56;;;;;;;56.58;26.48;;;;;;;;;;5043828;28;20417;-64
2021/12/23 10:45:32;;;;;;;57.20;25.92;;;;;;;;;;5048553;28;20117;-64
2021/12/23 10:48:04;;;;;;;58.15;26.92;;;;;;;;;;5033471;28;20457;-64
2021/12/23 10:50:52;;;;;;;;;;;;;;;;;;5033128;28;20046;-64
2021/12/23 10:53:50;;;;;;;52.85;25.35;;;;;;;;;;5049394;28;19917;-64
2021/12/23 10:59:17;;;;;;;53.05;24.38;;;;;;;;;;5032472;28;20053;-64
2021/12/23 11:02:07;;;;;;;58.30;26.90;;;;;;;;;;5042828;28;20072;-65
2021/12/23 11:04:48;;;;;;;55.17;26.10;;;;;;;;;;5033228;28;20037;-65
2021/12/23 11:07:22;;;;;;;64.65;27.58;;;;;;;;;;5030820;28;20050;-65
2021/12/23 11:10:17;;;;;;;64.68;28.40;;;;;;;;;;5025069;28;20450;-65
2021/12/23 11:35:44;;;;;;;58.35;26.90;;;;;;;;;;5036267;28;20068;-63
2021/12/23 11:37:58;;;;;;;57.28;26.92;;;;;;;;;;5041757;28;20056;-63
2021/12/23 11:40:50;;;;;;;55.67;26.70;;;;;;;;;;5032575;28;20056;-63
2021/12/23 11:45:47;;;;;;;60.70;26.67;;;;;;;;;;5034698;28;20046;-65
2021/12/23 11:48:14;;;;;;;64.88;28.08;;;;;;;;;;5035078;28;20045;-65
2021/12/23 11:53:25;;;;;;;61.97;28.70;;;;;;;;;;5034138;28;20502;-64
2021/12/23 11:55:52;;;;;;;62.45;28.10;;;;;;;;;;5034106;28;20072;-64
2021/12/23 11:58:21;;;;;;;51.78;24.40;;;;;;;;;;5043587;28;20038;-65
2021/12/23 12:01:00;;;;;;;66.47;27.35;;;;;;;;;;5034988;28;20616;-65
2021/12/23 12:03:26;;;;;;;62.65;28.35;;;;;;;;;;5034100;28;20033;-64
2021/12/23 12:05:52;;;;;;;63.80;29.83;;;;;;;;;;5046665;28;20066;-65
2021/12/23 12:08:23;;;;;;;56.92;27.13;;;;;;;;;;5037147;28;20438;-65
2021/12/23 12:10:49;;;;;;;63.17;28.77;;;;;;;;;;5048399;28;20040;-65
2021/12/23 12:13:17;;;;;;;59.90;28.55;;;;;;;;;;5041594;28;20041;-64
2021/12/23 12:15:47;;;;;;;62.83;28.60;;;;;;;;;;5039888;28;20110;-64
2021/12/23 12:18:23;;;;;;;64.70;29.85;;;;;;;;;;5035445;28;20171;-64
2021/12/23 12:20:54;;;;;;;64.93;28.45;;;;;;;;;;5034312;28;20038;-64
2021/12/23 12:23:29;;;;;;;59.40;26.70;;;;;;;;;;5037947;28;20207;-64
2021/12/23 12:26:06;;;;;;;66.13;29.27;;;;;;;;;;5046317;28;20064;-64
2021/12/23 12:28:34;;;;;;;64.32;30.25;;;;;;;;;;5032306;28;20049;-64
2021/12/23 12:31:02;;;;;;;61.63;27.45;;;;;;;;;;5041593;28;20046;-64
2021/12/23 12:33:28;;;;;;;55.90;26.70;;;;;;;;;;5043473;28;20041;-64
2021/12/23 12:36:03;;;;;;;59.70;28.02;;;;;;;;;;5038232;28;20053;-64
2021/12/23 12:38:31;;;;;;;58.97;27.55;;;;;;;;;;5051038;28;20075;-64
2021/12/23 12:40:57;;;;;;;64.75;28.88;;;;;;;;;;5034496;28;20038;-64
2021/12/23 12:43:41;;;;;;;56.78;26.92;;;;;;;;;;5033784;28;20410;-64
2021/12/23 12:46:07;;;;;;;63.50;28.90;;;;;;;;;;5033479;28;20041;-64
2021/12/23 12:48:52;;;;;;;62.28;28.42;;;;;;;;;;5036728;28;20407;-64
2021/12/23 12:51:19;;;;;;;51.15;25.25;;;;;;;;;;5034883;28;20041;-64
2021/12/23 12:53:56;;;;;;;65.22;28.13;;;;;;;;;;5042159;28;20500;-64
2021/12/23 12:56:26;;;;;;;62.97;27.48;;;;;;;;;;5053772;28;20049;-64
2021/12/23 12:58:53;;;;;;;58.25;26.35;;;;;;;;;;5037901;28;20033;-64
2021/12/23 13:01:33;;;;;;;61.83;28.00;;;;;;;;;;5033894;28;20594;-64
2021/12/23 13:04:00;;;;;;;66.65;28.05;;;;;;;;;;5034952;28;20398;-64
2021/12/23 13:06:56;;;;;;;59.63;28.27;;;;;;;;;;5038169;28;20056;-64
2021/12/23 13:09:36;;;;;;;62.85;27.30;;;;;;;;;;5005080;28;20622;-64
2021/12/23 13:12:04;;;;;;;56.03;25.73;;;;;;;;;;5049477;28;20103;-64
2021/12/23 13:15:05;;;;;;;58.47;25.48;;;;;;;;;;5038382;28;20636;-64
2021/12/23 13:17:50;;;;;;;64.68;28.73;;;;;;;;;;5035355;28;20103;-64
2021/12/23 13:20:17;;;;;;;59.15;27.67;;;;;;;;;;5038777;28;20049;-63
2021/12/23 13:22:44;;;;;;;61.90;29.67;;;;;;;;;;5031887;28;20181;-64
2021/12/23 13:25:11;;;;;;;60.95;27.73;;;;;;;;;;5033410;28;20045;-64
2021/12/23 13:27:39;;;;;;;62.83;29.33;;;;;;;;;;5029717;28;20102;-63
2021/12/23 13:30:06;;;;;;;65.68;28.58;;;;;;;;;;5030220;28;20053;-64
2021/12/23 13:32:32;;;;;;;64.38;27.83;;;;;;;;;;5033570;28;20491;-64
2021/12/23 13:35:08;;;;;;;53.15;25.05;;;;;;;;;;5032084;28;20571;-64
2021/12/23 13:37:34;;;;;;;54.75;26.30;;;;;;;;;;5032953;28;20029;-64
2021/12/23 13:40:00;;;;;;;63.47;29.27;;;;;;;;;;5032274;28;20037;-64
2021/12/23 13:42:25;;;;;;;59.33;28.33;;;;;;;;;;5032386;28;20041;-64
2021/12/23 13:44:54;;;;;;;60.85;27.92;;;;;;;;;;5032589;28;20048;-64
2021/12/23 13:47:22;;;;;;;56.20;27.05;;;;;;;;;;5029364;28;20407;-63
2021/12/23 13:49:53;;;;;;;61.45;30.25;;;;;;;;;;5029907;28;20124;-64
2021/12/23 13:52:52;;;;;;;59.83;26.63;;;;;;;;;;5030489;28;20053;-63
2021/12/23 13:55:26;;;;;;;56.65;27.90;;;;;;;;;;5006671;28;20049;-64
2021/12/23 13:57:55;;;;;;;63.47;27.83;;;;;;;;;;5028973;28;20044;-65
2021/12/23 14:00:23;;;;;;;65.20;29.00;;;;;;;;;;5028479;28;20049;-64
2021/12/23 14:02:53;;;;;;;60.20;28.52;;;;;;;;;;5031451;28;20556;-64
2021/12/23 14:05:20;;;;;;;55.03;26.52;;;;;;;;;;5029992;28;20060;-64
2021/12/23 14:07:47;;;;;;;60.35;28.45;;;;;;;;;;5027481;28;20513;-64
2021/12/23 14:10:13;;;;;;;58.75;26.02;;;;;;;;;;5031445;28;20554;-64
2021/12/23 14:12:41;;;;;;;61.33;28.70;;;;;;;;;;5029756;28;20052;-64
2021/12/23 14:15:08;;;;;;;59.50;26.45;;;;;;;;;;5030894;28;20034;-64
2021/12/23 14:17:39;;;;;;;57.47;25.60;;;;;;;;;;5030186;28;20514;-64
2021/12/23 14:25:37;;;;;;;58.15;26.00;;;;;;;;;;5031087;28;20064;-63
2021/12/23 14:28:04;;;;;;;57.38;25.85;;;;;;;;;;5031405;28;20236;-64
2021/12/23 14:30:37;;;;;;;57.03;26.48;;;;;;;;;;5029986;28;20068;-64
2021/12/23 14:33:07;;;;;;;61.80;27.23;;;;;;;;;;5031593;28;20037;-64
2021/12/23 14:35:33;;;;;;;60.90;27.00;;;;;;;;;;5028778;28;20053;-64
2021/12/23 14:38:00;;;;;;;63.75;28.15;;;;;;;;;;5025076;28;20077;-64
2021/12/23 14:40:26;;;;;;;62.53;28.48;;;;;;;;;;5030422;28;20081;-64
2021/12/23 14:43:00;;;;;;;65.88;27.45;;;;;;;;;;5019933;28;20038;-64
2021/12/23 14:45:26;;;;;;;61.70;27.95;;;;;;;;;;5026918;28;20049;-65
2021/12/23 14:47:58;;;;;;;65.70;27.65;;;;;;;;;;5024977;28;20052;-65
2021/12/23 14:50:25;;;;;;;58.50;27.15;;;;;;;;;;5021666;28;20112;-65
2021/12/23 14:52:56;;;;;;;61.72;29.33;;;;;;;;;;5029221;28;20044;-64
2021/12/23 14:55:32;;;;;;;58.50;27.07;;;;;;;;;;5025811;28;20144;-66
2021/12/23 14:58:02;;;;;;;64.45;27.83;;;;;;;;;;5031434;28;20294;-65
2021/12/23 15:00:31;;;;;;;58.45;28.67;;;;;;;;;;5030269;28;20056;-65
2021/12/23 15:03:01;;;;;;;61.50;27.63;;;;;;;;;;5028155;28;20392;-65
2021/12/23 15:05:28;;;;;;;58.30;27.80;;;;;;;;;;5030909;28;20037;-64
2021/12/23 15:07:55;;;;;;;56.95;26.85;;;;;;;;;;5029434;28;20491;-65
2021/12/23 15:10:40;;;;;;;61.95;28.15;;;;;;;;;;5032418;28;20099;-65
2021/12/23 15:13:20;;;;;;;52.85;25.75;;;;;;;;;;5031782;28;20045;-65
2021/12/23 15:15:47;;;;;;;58.05;26.02;;;;;;;;;;5037472;28;20047;-65
2021/12/23 15:18:41;;;;;;;61.83;27.85;;;;;;;;;;5048852;28;20037;-65
2021/12/23 15:21:17;;;;;;;128.77;71.93;;;;;;;;;;5049591;28;20174;-65
2021/12/23 15:23:43;;;;;;;64.40;30.13;;;;;;;;;;5044512;28;20064;-66
2021/12/23 15:26:28;;;;;;;60.55;26.90;;;;;;;;;;5039157;28;20045;-66
2021/12/23 15:29:07;;;;;;;65.25;29.58;;;;;;;;;;5042848;28;20045;-66
2021/12/23 15:31:34;;;;;;;68.28;29.83;;;;;;;;;;5029755;28;20099;-66
2021/12/23 15:34:00;;;;;;;60.17;26.58;;;;;;;;;;5034814;28;20498;-65